Time;durP1;ratioP1;P1;durP2;ratioP2;P2;SDS_P1;SDS_P2;PMS_P1;PMS_P2;Temp;Humidity;BMP_temperature;BMP_pressure;BME280_temperature;BME280_humidity;BME280_pressure;Samples;Min_cycle;Max_cycle;Signal;HPM_P1;HPM_P2
2022/12/27 00:01:18;;;;;;;2.40;1.10;;;;;;;7.01;58.05;101634.78;4190794;28;20074;-74
2022/12/27 00:03:22;;;;;;;3.80;1.50;;;;;;;7.06;58.68;101640.16;4195775;28;20041;-73
2022/12/27 00:05:26;;;;;;;2.80;1.10;;;;;;;7.07;58.70;101632.47;4196012;28;20089;-74
2022/12/27 00:07:29;;;;;;;4.97;1.17;;;;;;;7.09;58.56;101632.56;4179531;28;20040;-73
2022/12/27 00:09:32;;;;;;;3.40;1.20;;;;;;;7.14;58.63;101643.97;4196144;28;20052;-74
2022/12/27 00:11:36;;;;;;;3.60;1.45;;;;;;;7.14;58.44;101641.41;4197239;28;20044;-74
2022/12/27 00:13:39;;;;;;;4.32;1.27;;;;;;;7.11;58.88;101646.44;4196852;28;20093;-73
2022/12/27 00:15:42;;;;;;;8.25;0.98;;;;;;;7.09;58.75;101640.31;4187080;28;20119;-74
2022/12/27 00:17:45;;;;;;;5.60;0.95;;;;;;;7.06;59.08;101645.34;4195656;28;20059;-74
2022/12/27 00:19:49;;;;;;;2.78;0.82;;;;;;;7.01;58.74;101641.63;4196074;28;20044;-75
2022/12/27 00:21:52;;;;;;;0.88;0.65;;;;;;;6.97;58.88;101646.66;4197497;28;20230;-74
2022/12/27 00:23:57;;;;;;;2.80;0.77;;;;;;;6.94;58.46;101646.53;4195039;28;20068;-74
2022/12/27 00:26:01;;;;;;;2.22;1.02;;;;;;;6.91;58.97;101646.38;4196858;28;20036;-75
2022/12/27 00:28:04;;;;;;;2.45;0.70;;;;;;;6.88;58.84;101641.06;4197051;28;20052;-75
2022/12/27 00:30:08;;;;;;;1.15;0.60;;;;;;;6.77;58.63;101643.09;4196218;28;20044;-74
2022/12/27 00:32:11;;;;;;;1.37;0.70;;;;;;;6.63;58.80;101645.03;4196995;28;20047;-74
2022/12/27 00:34:14;;;;;;;2.30;0.60;;;;;;;6.56;59.42;101645.53;4195359;28;20051;-74
2022/12/27 00:36:21;;;;;;;3.08;0.93;;;;;;;6.49;59.93;101647.75;4195859;28;20072;-74
2022/12/27 00:38:24;;;;;;;4.72;1.27;;;;;;;6.36;60.30;101641.06;4197102;28;20124;-74
2022/12/27 00:40:27;;;;;;;7.30;0.95;;;;;;;6.24;59.99;101651.66;4195750;28;20048;-74
2022/12/27 00:42:30;;;;;;;5.07;1.02;;;;;;;6.15;60.52;101657.25;4196868;28;20044;-73
2022/12/27 00:44:33;;;;;;;6.18;1.25;;;;;;;6.05;60.76;101653.28;4195904;28;20075;-73
2022/12/27 00:46:35;;;;;;;2.20;0.90;;;;;;;5.94;61.21;101657.88;4196044;28;20510;-73
2022/12/27 00:48:38;;;;;;;4.22;1.50;;;;;;;5.87;61.62;101662.63;4195387;28;20037;-73
2022/12/27 00:50:42;;;;;;;6.55;1.40;;;;;;;5.88;61.41;101662.69;4197053;28;20063;-74
2022/12/27 00:52:47;;;;;;;8.30;1.37;;;;;;;5.95;61.57;101667.38;4196933;28;20047;-75
2022/12/27 00:54:49;;;;;;;4.32;1.20;;;;;;;6.02;61.34;101662.59;4196672;28;20037;-73
2022/12/27 00:56:52;;;;;;;3.08;1.02;;;;;;;6.14;61.39;101668.38;4196926;28;20044;-74
2022/12/27 00:58:57;;;;;;;3.70;1.40;;;;;;;6.23;61.57;101663.66;4194817;28;20036;-74
2022/12/27 01:01:06;;;;;;;6.00;1.10;;;;;;;6.33;61.55;101664.16;4195501;28;20044;-74
2022/12/27 01:03:09;;;;;;;2.83;0.98;;;;;;;6.37;61.81;101672.13;4196742;28;20049;-74
2022/12/27 01:05:12;;;;;;;6.97;1.25;;;;;;;6.40;61.77;101666.25;4195387;28;20549;-74
2022/12/27 01:07:15;;;;;;;2.67;0.82;;;;;;;6.39;61.50;101672.22;4194351;28;20482;-73
2022/12/27 01:09:19;;;;;;;5.10;1.30;;;;;;;6.29;61.40;101674.34;4196664;28;20509;-73
2022/12/27 01:11:23;;;;;;;5.38;1.35;;;;;;;6.17;61.01;101678.84;4196772;28;20048;-74
2022/12/27 01:13:26;;;;;;;2.45;1.10;;;;;;;6.21;61.88;101680.78;4196350;28;20068;-73
2022/12/27 01:15:29;;;;;;;4.28;1.05;;;;;;;6.24;61.86;101687.81;4193742;28;20033;-74
2022/12/27 01:17:32;;;;;;;4.97;0.98;;;;;;;6.27;62.28;101683.69;4196580;28;20440;-74
2022/12/27 01:19:35;;;;;;;6.60;1.30;;;;;;;6.28;62.28;101685.47;4196729;28;20240;-74
2022/12/27 01:21:38;;;;;;;5.95;1.35;;;;;;;6.18;62.41;101697.84;4196620;28;20040;-74
2022/12/27 01:23:41;;;;;;;6.50;1.30;;;;;;;6.04;62.29;101695.41;4196241;28;20252;-74
2022/12/27 01:25:46;;;;;;;4.65;1.40;;;;;;;6.01;62.38;101697.81;4196574;28;20529;-73
2022/12/27 01:27:48;;;;;;;2.60;1.27;;;;;;;6.00;62.81;101701.22;4197432;28;20082;-73
2022/12/27 01:29:51;;;;;;;7.10;1.95;;;;;;;6.04;63.16;101700.56;4197189;28;20076;-74
2022/12/27 01:31:54;;;;;;;3.95;1.50;;;;;;;6.15;63.25;101700.22;4199653;28;20486;-73
2022/12/27 01:33:59;;;;;;;6.28;1.67;;;;;;;6.20;63.85;101702.25;4199488;28;20052;-73
2022/12/27 01:36:09;;;;;;;10.23;1.77;;;;;;;6.24;63.24;101704.19;4198568;28;20060;-74
2022/12/27 01:38:12;;;;;;;7.82;1.38;;;;;;;6.27;63.49;101701.75;4199627;28;20127;-74
2022/12/27 01:40:15;;;;;;;10.98;1.63;;;;;;;6.32;63.47;101703.69;4199413;28;20044;-73
2022/12/27 01:44:50;;;;;;;10.55;1.90;;;;;;;6.29;63.28;101705.34;4196532;28;20083;-74
2022/12/27 01:46:54;;;;;;;5.50;1.77;;;;;;;6.26;63.74;101704.28;4182732;28;20037;-73
2022/12/27 01:48:57;;;;;;;3.75;1.27;;;;;;;6.25;63.53;101713.72;4198170;28;20040;-73
2022/12/27 01:51:05;;;;;;;3.38;1.17;;;;;;;6.22;63.61;101708.41;4181600;28;20111;-74
2022/12/27 01:53:13;;;;;;;9.65;2.25;;;;;;;6.18;63.77;101714.22;4182637;28;20045;-74
2022/12/27 01:55:22;;;;;;;7.15;1.20;;;;;;;6.16;64.13;101712.34;4182618;28;20568;-74
2022/12/27 01:57:27;;;;;;;4.70;1.27;;;;;;;6.09;64.48;101717.19;4186647;28;20532;-74
2022/12/27 01:59:30;;;;;;;4.35;1.42;;;;;;;6.03;64.28;101716.88;4199220;28;20040;-74
2022/12/27 02:01:37;;;;;;;4.35;1.35;;;;;;;6.05;64.96;101720.41;4197724;28;20048;-73
2022/12/27 02:03:45;;;;;;;6.50;1.38;;;;;;;6.04;65.24;101723.78;4197607;28;20450;-74
2022/12/27 02:05:49;;;;;;;4.53;1.30;;;;;;;6.00;65.03;101726.13;4199073;28;20533;-74
2022/12/27 02:08:04;;;;;;;5.65;1.42;;;;;;;6.00;64.72;101727.03;4197928;28;20519;-74
2022/12/27 02:10:07;;;;;;;4.45;1.30;;;;;;;5.94;65.27;101719.81;4199113;28;20036;-74
2022/12/27 02:12:11;;;;;;;5.75;1.58;;;;;;;5.98;65.03;101720.91;4193566;28;20036;-74
2022/12/27 02:14:20;;;;;;;7.03;1.50;;;;;;;5.90;64.87;101725.63;4194314;28;20040;-73
2022/12/27 02:16:29;;;;;;;;;;;;;;;5.73;64.87;101732.44;4199235;28;20029;-73
2022/12/27 02:18:32;;;;;;;10.32;2.40;;;;;;;5.72;65.08;101724.63;4197648;28;19925;-73
2022/12/27 02:20:48;;;;;;;4.03;1.35;;;;;;;5.69;64.69;101729.63;4199154;28;20401;-74
2022/12/27 02:26:02;;;;;;;7.18;1.75;;;;;;;5.56;64.92;101726.38;4197814;28;20050;-74
2022/12/27 02:28:18;;;;;;;8.45;1.75;;;;;;;5.57;64.99;101719.53;4198302;28;20047;-74
2022/12/27 02:30:22;;;;;;;4.65;1.30;;;;;;;5.63;65.19;101726.72;4198681;28;20522;-74
2022/12/27 02:32:30;;;;;;;5.30;1.80;;;;;;;5.58;65.10;101727.34;4198740;28;20490;-74
2022/12/27 02:34:45;;;;;;;7.45;1.50;;;;;;;5.71;65.32;101728.91;4198637;28;20522;-74
2022/12/27 02:36:51;;;;;;;6.35;1.52;;;;;;;5.65;65.34;101735.41;4198719;28;20036;-73
2022/12/27 02:38:59;;;;;;;7.38;2.00;;;;;;;5.65;65.62;101728.56;4198044;28;20064;-74
2022/12/27 02:53:49;;;;;;;6.30;1.27;;;;;;;5.79;65.86;101729.31;4162061;28;20071;-73
2022/12/27 02:58:31;;;;;;;9.23;1.60;;;;;;;5.72;65.97;101734.94;4198338;28;20044;-74
2022/12/27 03:03:22;;;;;;;5.05;1.17;;;;;;;5.70;65.87;101726.25;4198219;28;20536;-73
2022/12/27 03:05:36;;;;;;;4.47;1.75;;;;;;;5.73;65.99;101722.13;4198206;28;20040;-73
2022/12/27 03:07:50;;;;;;;8.02;1.48;;;;;;;5.69;65.94;101730.50;4198190;28;20544;-73
2022/12/27 03:17:26;;;;;;;;;;;;;;;5.47;66.86;101743.91;4198481;28;20479;-73
2022/12/27 03:26:46;;;;;;;8.70;1.98;;;;;;;5.52;66.73;101741.56;4195901;28;20036;-74
2022/12/27 03:33:48;;;;;;;4.22;1.33;;;;;;;5.59;66.57;101744.59;4196929;28;20414;-73
2022/12/27 03:38:16;;;;;;;5.45;1.55;;;;;;;5.55;66.64;101747.81;4176217;28;19921;-74
2022/12/27 03:40:33;;;;;;;11.40;1.98;;;;;;;5.68;66.68;101749.38;4197589;28;20044;-74
2022/12/27 03:45:01;;;;;;;5.28;1.35;;;;;;;5.80;66.60;101756.91;4197282;28;20032;-75
2022/12/27 03:47:11;;;;;;;6.22;1.48;;;;;;;5.80;66.42;101748.25;4197588;28;20398;-75
2022/12/27 03:49:23;;;;;;;4.80;1.38;;;;;;;5.87;66.34;101752.94;4196362;28;20051;-74
2022/12/27 03:51:32;;;;;;;8.05;1.45;;;;;;;5.90;66.25;101751.44;4194666;28;20118;-74
2022/12/27 03:53:38;;;;;;;7.53;1.85;;;;;;;5.94;66.34;101748.22;4202569;28;20142;-74
2022/12/27 03:55:42;;;;;;;5.15;1.50;;;;;;;5.93;66.48;101756.75;4197592;28;20037;-75
2022/12/27 03:57:45;;;;;;;4.50;1.40;;;;;;;5.95;66.05;101755.13;4197404;28;20517;-75
2022/12/27 03:59:48;;;;;;;4.35;1.25;;;;;;;5.91;66.27;101755.81;4197335;28;20047;-75
2022/12/27 04:01:51;;;;;;;4.95;1.75;;;;;;;5.89;66.44;101749.66;4197394;28;20075;-75
2022/12/27 04:03:54;;;;;;;3.90;1.20;;;;;;;5.89;66.53;101739.31;4196953;28;20408;-74
2022/12/27 04:05:57;;;;;;;4.80;1.35;;;;;;;5.88;66.91;101742.69;4189839;28;20098;-75
2022/12/27 04:36:08;;;;;;;5.20;1.10;;;;;;;5.35;69.03;101757.00;4197055;28;20041;-75
2022/12/27 04:38:11;;;;;;;6.40;1.45;;;;;;;5.38;68.73;101745.97;4197069;28;20520;-75
2022/12/27 04:56:44;;;;;;;8.02;1.92;;;;;;;5.34;68.93;101755.22;4196884;28;20047;-77
2022/12/27 05:03:25;;;;;;;4.55;1.30;;;;;;;5.22;69.40;101752.84;4199672;28;20037;-77
2022/12/27 05:05:31;;;;;;;4.00;1.23;;;;;;;5.22;69.55;101741.66;4194663;28;20036;-77
2022/12/27 05:14:36;;;;;;;4.88;1.38;;;;;;;5.12;70.14;101760.84;4199370;28;20048;-77
2022/12/27 05:16:42;;;;;;;4.68;1.13;;;;;;;5.19;69.58;101760.41;4199884;28;20041;-78
2022/12/27 05:18:44;;;;;;;4.80;1.60;;;;;;;5.13;69.58;101760.06;4199726;28;20498;-77
2022/12/27 05:20:46;;;;;;;8.43;1.80;;;;;;;5.12;69.46;101763.44;4192406;28;20098;-77
2022/12/27 05:27:32;;;;;;;15.15;8.55;;;;;;;5.11;69.14;101782.28;4198476;28;20043;-77
2022/12/27 05:29:36;;;;;;;11.65;6.95;;;;;;;5.06;69.36;101783.69;4199978;28;20090;-77
2022/12/27 05:31:39;;;;;;;11.32;4.57;;;;;;;5.02;69.69;101790.38;4199703;28;20044;-77
2022/12/27 05:33:42;;;;;;;9.15;3.33;;;;;;;5.00;69.89;101796.25;4197129;28;20028;-78
2022/12/27 05:35:45;;;;;;;6.13;1.92;;;;;;;4.95;70.27;101802.78;4197080;28;20119;-77
2022/12/27 05:37:49;;;;;;;5.78;2.08;;;;;;;4.94;70.24;101801.03;4199742;28;20032;-77
2022/12/27 05:39:56;;;;;;;10.02;2.58;;;;;;;4.98;70.02;101800.41;4183020;28;20392;-77
2022/12/27 05:41:59;;;;;;;8.57;3.00;;;;;;;5.09;69.50;101795.88;4182917;28;20045;-78
2022/12/27 05:44:03;;;;;;;5.80;1.65;;;;;;;5.09;69.49;101806.19;4182325;28;20041;-78
2022/12/27 05:46:11;;;;;;;4.72;1.73;;;;;;;5.04;69.52;101809.38;4193903;28;20048;-77
2022/12/27 05:48:14;;;;;;;;;;;;;;;4.92;69.80;101807.78;4200022;28;20509;-77
2022/12/27 05:50:17;;;;;;;6.72;1.40;;;;;;;4.84;70.19;101807.34;4199465;28;20279;-77
2022/12/27 05:52:24;;;;;;;4.35;1.50;;;;;;;4.84;69.94;101805.63;4199449;28;20045;-77
2022/12/27 05:54:27;;;;;;;6.72;1.60;;;;;;;4.84;70.26;101805.63;4197849;28;20137;-78
2022/12/27 05:56:34;;;;;;;4.03;1.33;;;;;;;4.81;70.22;101815.75;4197990;28;20052;-77
2022/12/27 05:58:37;;;;;;;4.75;1.50;;;;;;;4.81;70.60;101807.16;4196662;28;20136;-78
2022/12/27 06:00:41;;;;;;;5.75;1.30;;;;;;;4.84;70.42;101795.31;4199065;28;20056;-78
2022/12/27 06:02:44;;;;;;;3.05;1.20;;;;;;;4.81;70.60;101805.47;4194723;28;20541;-78
2022/12/27 06:04:47;;;;;;;4.63;1.80;;;;;;;4.98;70.01;101792.66;4198472;28;20039;-78
2022/12/27 06:06:50;;;;;;;4.53;1.60;;;;;;;4.83;70.46;101797.81;4181296;28;20542;-78
2022/12/27 06:08:52;;;;;;;4.05;1.33;;;;;;;4.82;70.79;101802.09;4182502;28;20040;-78
2022/12/27 06:11:03;;;;;;;4.53;1.52;;;;;;;4.82;70.79;101802.09;4191432;28;20491;-78
2022/12/27 06:13:06;;;;;;;5.65;1.38;;;;;;;4.77;70.89;101807.75;4198482;28;20067;-78
2022/12/27 06:15:10;;;;;;;4.75;1.75;;;;;;;4.79;71.00;101812.22;4197175;28;20080;-77
2022/12/27 06:17:14;;;;;;;3.30;1.40;;;;;;;4.73;71.04;101811.81;4180289;28;20525;-77
2022/12/27 06:19:19;;;;;;;8.73;2.22;;;;;;;4.77;71.17;101807.75;4198911;28;20043;-77
2022/12/27 06:21:21;;;;;;;4.32;1.58;;;;;;;4.82;71.05;101819.22;4199109;28;20047;-76
2022/12/27 06:23:24;;;;;;;4.53;1.40;;;;;;;4.82;70.93;101825.28;4197539;28;20040;-77
2022/12/27 06:25:27;;;;;;;3.88;1.50;;;;;;;4.78;71.34;101815.59;4180934;28;20040;-77
2022/12/27 06:27:30;;;;;;;5.55;1.48;;;;;;;4.82;71.05;101809.81;4198836;28;20032;-77
2022/12/27 06:29:33;;;;;;;2.45;1.30;;;;;;;4.81;70.97;101815.75;4197610;28;20044;-78
2022/12/27 06:31:35;;;;;;;5.70;1.50;;;;;;;4.82;71.15;101821.78;4196384;28;20044;-78
2022/12/27 06:33:41;;;;;;;5.35;1.42;;;;;;;4.85;71.00;101825.47;4195928;28;20090;-78
2022/12/27 06:35:43;;;;;;;4.10;2.00;;;;;;;4.93;70.80;101820.75;4198638;28;20032;-78
2022/12/27 06:37:46;;;;;;;9.20;1.60;;;;;;;4.90;70.95;101821.44;4198761;28;20086;-77
2022/12/27 06:39:49;;;;;;;6.97;2.17;;;;;;;4.97;70.57;101825.28;4198785;28;20123;-77
2022/12/27 06:41:54;;;;;;;5.40;1.58;;;;;;;5.03;70.10;101828.22;4197497;28;20045;-78
2022/12/27 06:43:58;;;;;;;4.75;1.40;;;;;;;4.96;70.11;101825.19;4197197;28;20440;-77
2022/12/27 06:46:03;;;;;;;3.77;1.70;;;;;;;4.95;70.27;101833.72;4192261;28;20040;-77
2022/12/27 06:48:06;;;;;;;9.82;1.95;;;;;;;4.88;70.43;101835.94;4198669;28;20287;-77
2022/12/27 06:50:10;;;;;;;6.93;1.67;;;;;;;4.92;70.29;101833.53;4197498;28;20048;-77
2022/12/27 06:52:13;;;;;;;9.65;2.00;;;;;;;4.92;70.62;101825.81;4198491;28;20098;-77
2022/12/27 06:54:16;;;;;;;9.20;1.80;;;;;;;4.97;70.32;101837.28;4193283;28;20041;-77
2022/12/27 06:56:20;;;;;;;8.68;2.50;;;;;;;4.95;70.40;101841.44;4198383;28;20094;-78
2022/12/27 06:58:23;;;;;;;6.10;2.03;;;;;;;4.94;70.77;101842.28;4197186;28;20499;-78
2022/12/27 07:00:26;;;;;;;5.20;1.80;;;;;;;4.89;70.45;101845.47;4197305;28;20074;-76
2022/12/27 07:02:28;;;;;;;6.25;1.35;;;;;;;4.92;70.73;101841.28;4198139;28;20036;-77
2022/12/27 07:04:31;;;;;;;6.35;1.60;;;;;;;4.92;70.61;101849.00;4197753;28;20094;-77
2022/12/27 07:06:37;;;;;;;7.95;1.90;;;;;;;4.93;70.64;101849.09;4198243;28;20040;-77
2022/12/27 07:08:40;;;;;;;7.00;1.73;;;;;;;5.00;70.52;101864.13;4198066;28;20037;-77
2022/12/27 07:10:43;;;;;;;8.60;2.35;;;;;;;5.09;69.96;101853.47;4198076;28;20044;-77
2022/12/27 07:12:46;;;;;;;12.48;3.83;;;;;;;5.00;70.29;101858.97;4198184;28;20067;-78
2022/12/27 07:14:48;;;;;;;4.25;2.13;;;;;;;4.94;70.35;101856.03;4195861;28;20040;-78
2022/12/27 07:16:51;;;;;;;7.35;1.90;;;;;;;4.85;70.71;101855.50;4190031;28;20044;-78
2022/12/27 07:18:56;;;;;;;7.22;2.13;;;;;;;4.84;70.88;101856.28;4196836;28;20032;-78
2022/12/27 07:20:59;;;;;;;8.38;2.03;;;;;;;4.81;71.22;101861.25;4197990;28;20114;-78
2022/12/27 07:23:03;;;;;;;7.13;1.52;;;;;;;4.82;71.05;101866.50;4197835;28;20036;-78
2022/12/27 07:25:07;;;;;;;5.80;1.77;;;;;;;4.77;71.16;101867.91;4197478;28;20415;-78
2022/12/27 07:27:10;;;;;;;7.28;2.08;;;;;;;4.71;71.28;101875.25;4197224;28;20090;-77
2022/12/27 07:29:12;;;;;;;6.28;1.98;;;;;;;4.71;71.34;101870.97;4195747;28;20024;-78
2022/12/27 07:31:18;;;;;;;5.20;1.60;;;;;;;4.73;71.34;101868.50;4197800;28;20510;-78
2022/12/27 07:33:21;;;;;;;3.60;1.90;;;;;;;4.70;71.59;101876.03;4196220;28;20056;-77
2022/12/27 07:35:23;;;;;;;4.88;2.13;;;;;;;4.67;71.83;101873.28;4197623;28;20043;-77
2022/12/27 07:37:26;;;;;;;5.20;2.15;;;;;;;4.67;71.89;101875.88;4197688;28;20395;-78
2022/12/27 07:39:30;;;;;;;8.27;2.35;;;;;;;4.71;71.65;101873.56;4196519;28;20040;-77
2022/12/27 07:41:34;;;;;;;8.60;2.00;;;;;;;4.68;71.70;101872.50;4197924;28;20041;-77
2022/12/27 07:43:37;;;;;;;4.80;1.90;;;;;;;4.65;71.90;101873.19;4194620;28;20055;-77
2022/12/27 07:45:40;;;;;;;8.85;2.72;;;;;;;4.66;71.95;101875.00;4196649;28;20064;-77
2022/12/27 07:47:43;;;;;;;7.82;2.60;;;;;;;4.65;71.97;101890.34;4196567;28;20102;-77
2022/12/27 07:49:46;;;;;;;2.38;1.75;;;;;;;4.64;72.26;101889.44;4197441;28;20044;-77
2022/12/27 07:51:48;;;;;;;8.25;2.88;;;;;;;4.63;72.43;101891.91;4197503;28;20512;-77
2022/12/27 07:53:51;;;;;;;11.13;2.65;;;;;;;4.54;72.58;101897.41;4197031;28;20052;-77
2022/12/27 07:55:56;;;;;;;6.90;2.55;;;;;;;4.55;72.68;101891.47;4196679;28;20067;-77
2022/12/27 07:57:59;;;;;;;;;;;;;;;4.46;73.13;101886.63;4197741;28;20136;-77
2022/12/27 08:00:03;;;;;;;13.98;2.47;;;;;;;4.50;73.03;101880.88;4195542;28;19924;-77
2022/12/27 08:02:15;;;;;;;6.93;2.92;;;;;;;4.50;73.27;101880.00;4197308;28;20107;-77
2022/12/27 08:04:18;;;;;;;6.18;2.20;;;;;;;4.52;73.23;101886.13;4197174;28;20104;-77
2022/12/27 08:06:23;;;;;;;7.18;2.80;;;;;;;4.63;72.94;101889.34;4196110;28;20041;-77
2022/12/27 08:08:33;;;;;;;6.55;3.10;;;;;;;4.67;72.93;101893.91;4197272;28;20102;-77
2022/12/27 08:10:36;;;;;;;10.15;3.40;;;;;;;4.69;72.54;101897.47;4197264;28;20041;-76
2022/12/27 08:12:40;;;;;;;9.75;3.35;;;;;;;4.75;72.50;101892.69;4197268;28;20036;-77
2022/12/27 08:14:43;;;;;;;5.18;2.38;;;;;;;4.70;72.46;101897.56;4195002;28;20047;-77
2022/12/27 08:16:45;;;;;;;7.95;2.78;;;;;;;4.70;72.68;101904.38;4196911;28;20051;-77
2022/12/27 08:18:48;;;;;;;7.43;3.17;;;;;;;4.69;72.53;101902.63;4197284;28;20506;-77
2022/12/27 08:20:52;;;;;;;10.13;5.15;;;;;;;4.79;72.18;101904.97;4197142;28;20052;-77
2022/12/27 08:22:54;;;;;;;8.95;4.68;;;;;;;4.79;72.05;101904.97;4197112;28;20503;-77
2022/12/27 08:24:57;;;;;;;8.73;4.50;;;;;;;4.82;72.32;101910.31;4196855;28;20474;-77
2022/12/27 08:27:00;;;;;;;10.57;3.92;;;;;;;4.85;72.07;101907.91;4197084;28;20040;-77
2022/12/27 08:29:05;;;;;;;7.10;3.50;;;;;;;4.88;72.04;101912.38;4196004;28;20032;-77
2022/12/27 08:31:10;;;;;;;9.30;3.33;;;;;;;4.82;72.46;101910.31;4195634;28;20162;-77
2022/12/27 08:33:14;;;;;;;7.70;3.88;;;;;;;4.90;72.21;101918.50;4196908;28;20040;-77
2022/12/27 08:35:17;;;;;;;9.05;3.10;;;;;;;4.90;72.17;101908.19;4196938;28;20040;-77
2022/12/27 08:37:39;;;;;;;10.52;3.40;;;;;;;4.87;72.43;101902.84;4195259;28;20040;-77
2022/12/27 08:39:42;;;;;;;6.07;2.47;;;;;;;4.85;72.76;101905.34;4195719;28;20048;-77
2022/12/27 08:41:45;;;;;;;8.18;3.20;;;;;;;4.88;72.58;101915.81;4197015;28;20044;-77
2022/12/27 08:43:48;;;;;;;7.32;3.05;;;;;;;4.90;72.62;101909.06;4194318;28;20037;-76
2022/12/27 08:45:52;;;;;;;6.47;2.80;;;;;;;5.02;72.30;101918.34;4195749;28;20076;-77
2022/12/27 08:47:58;;;;;;;8.75;2.60;;;;;;;5.08;71.96;101916.13;4212531;28;20583;-77
2022/12/27 08:50:01;;;;;;;6.72;2.72;;;;;;;5.01;72.05;101921.75;4196870;28;20052;-77
2022/12/27 08:52:04;;;;;;;8.55;2.60;;;;;;;4.98;72.45;101913.78;4196876;28;20509;-78
2022/12/27 08:54:08;;;;;;;7.55;2.85;;;;;;;5.00;72.53;101918.25;4195314;28;20494;-78
2022/12/27 08:56:10;;;;;;;7.90;2.88;;;;;;;5.06;72.64;101910.00;4195924;28;20044;-78
2022/12/27 08:58:13;;;;;;;6.97;2.33;;;;;;;5.08;72.65;101913.53;4192908;28;20043;-78
2022/12/27 09:00:18;;;;;;;8.82;2.72;;;;;;;5.10;72.80;101909.41;4195515;28;20068;-78
2022/12/27 09:02:22;;;;;;;7.32;2.53;;;;;;;5.13;72.97;101917.31;4195682;28;20094;-78
2022/12/27 09:04:25;;;;;;;6.13;2.63;;;;;;;5.22;72.57;101919.53;4194270;28;20120;-77
2022/12/27 09:06:28;;;;;;;9.20;2.67;;;;;;;5.25;72.56;101930.03;4195136;28;20165;-78
2022/12/27 09:08:31;;;;;;;14.73;2.92;;;;;;;5.28;72.49;101921.59;4196693;28;20090;-78
2022/12/27 09:10:33;;;;;;;6.80;2.80;;;;;;;5.29;72.61;101924.25;4196914;28;20083;-78
2022/12/27 09:12:37;;;;;;;9.18;2.45;;;;;;;5.32;72.47;101919.28;4196779;28;20087;-78
2022/12/27 09:14:40;;;;;;;6.40;2.55;;;;;;;5.33;72.67;101921.06;4196432;28;20041;-78
2022/12/27 09:16:42;;;;;;;5.90;2.42;;;;;;;5.37;72.56;101923.03;4196834;28;20094;-78
2022/12/27 09:18:48;;;;;;;6.15;2.40;;;;;;;5.46;72.46;101932.09;4196736;28;20044;-78
2022/12/27 09:20:51;;;;;;;5.55;2.80;;;;;;;5.47;72.78;101929.59;4196177;28;20041;-78
2022/12/27 09:22:53;;;;;;;12.23;2.60;;;;;;;5.50;72.86;101932.38;4196602;28;20048;-78
2022/12/27 09:24:56;;;;;;;8.85;2.10;;;;;;;5.59;72.50;101932.91;4196368;28;20041;-78
2022/12/27 09:26:59;;;;;;;6.65;3.05;;;;;;;5.68;72.34;101931.66;4196633;28;20049;-78
2022/12/27 09:29:02;;;;;;;8.70;2.50;;;;;;;5.65;72.43;101934.97;4196623;28;20110;-78
2022/12/27 09:31:05;;;;;;;9.80;3.80;;;;;;;5.70;72.42;101937.81;4196583;28;20044;-78
2022/12/27 09:33:08;;;;;;;6.75;2.60;;;;;;;5.77;72.05;101939.94;4196837;28;20418;-78
2022/12/27 09:35:12;;;;;;;6.72;2.95;;;;;;;5.84;72.38;101942.09;4193838;28;20036;-78
2022/12/27 09:37:15;;;;;;;10.68;2.53;;;;;;;5.82;71.60;101941.09;4196559;28;20080;-78
2022/12/27 09:39:18;;;;;;;5.32;2.30;;;;;;;5.86;72.18;101947.31;4195245;28;20045;-77
2022/12/27 09:41:28;;;;;;;5.50;2.47;;;;;;;5.93;71.65;101947.75;4195268;28;20529;-77
2022/12/27 09:43:58;;;;;;;5.32;2.25;;;;;;;6.04;71.55;101938.06;4196268;28;20047;-76
2022/12/27 09:46:02;;;;;;;8.48;2.50;;;;;;;6.15;71.20;101940.34;4195390;28;20036;-77
2022/12/27 09:48:13;;;;;;;9.45;2.97;;;;;;;6.10;71.19;101937.53;4190661;28;20037;-77
2022/12/27 09:50:20;;;;;;;8.10;2.10;;;;;;;6.13;71.02;101948.03;4198768;28;20040;-77
2022/12/27 09:52:28;;;;;;;8.95;2.38;;;;;;;6.20;71.02;101946.69;4199442;28;20049;-77
2022/12/27 09:54:37;;;;;;;7.63;2.63;;;;;;;6.29;71.13;101944.59;4197916;28;20449;-77
2022/12/27 09:56:40;;;;;;;6.75;2.20;;;;;;;6.29;70.85;101949.78;4198192;28;20521;-77
2022/12/27 09:59:10;;;;;;;14.45;3.17;;;;;;;6.35;71.12;101944.97;4199377;28;20136;-77
2022/12/27 10:01:20;;;;;;;5.35;2.13;;;;;;;6.39;70.63;101949.47;4197351;28;20498;-77
2022/12/27 10:03:26;;;;;;;8.07;2.65;;;;;;;6.39;70.28;101943.44;4194120;28;20475;-77
2022/12/27 10:05:34;;;;;;;10.57;2.75;;;;;;;6.47;69.99;101937.00;4198104;28;20345;-77
2022/12/27 10:07:49;;;;;;;8.85;2.35;;;;;;;6.47;70.38;101932.72;4199269;28;20406;-77
2022/12/27 10:10:01;;;;;;;8.15;1.95;;;;;;;6.47;70.28;101927.53;4198173;28;20044;-77
2022/12/27 10:12:15;;;;;;;7.57;2.30;;;;;;;6.51;69.59;101927.72;4199095;28;20055;-77
2022/12/27 10:14:31;;;;;;;6.78;2.75;;;;;;;6.42;70.18;101920.34;4197637;28;20051;-77
2022/12/27 10:16:41;;;;;;;8.77;2.85;;;;;;;6.47;69.81;101924.09;4197298;28;20482;-77
2022/12/27 10:18:53;;;;;;;7.05;2.80;;;;;;;6.47;69.84;101924.97;4198917;28;20037;-77
2022/12/27 10:21:08;;;;;;;10.07;3.58;;;;;;;6.48;69.87;101931.00;4199074;28;20111;-77
2022/12/27 10:23:14;;;;;;;7.15;2.90;;;;;;;6.44;70.39;101942.88;4198890;28;20048;-77
2022/12/27 10:25:22;;;;;;;8.50;3.47;;;;;;;6.53;70.01;101932.16;4198951;28;20573;-77
2022/12/27 10:27:27;;;;;;;9.98;3.35;;;;;;;6.54;69.74;101938.22;4198963;28;20482;-77
2022/12/27 10:29:32;;;;;;;6.68;2.67;;;;;;;6.55;69.46;101935.72;4196920;28;20135;-77
2022/12/27 10:31:41;;;;;;;8.75;2.55;;;;;;;6.53;69.93;101936.44;4198866;28;20025;-77
2022/12/27 10:33:45;;;;;;;9.63;2.85;;;;;;;6.50;70.14;101932.00;4197247;28;20093;-76
2022/12/27 10:35:48;;;;;;;8.82;3.92;;;;;;;6.49;70.52;101935.38;4197552;28;20052;-76
2022/12/27 10:37:53;;;;;;;5.00;2.15;;;;;;;6.56;70.25;101931.44;4197521;28;20045;-77
2022/12/27 10:40:01;;;;;;;8.68;2.58;;;;;;;6.57;70.18;101926.38;4198732;28;20044;-77
2022/12/27 10:42:09;;;;;;;8.02;3.58;;;;;;;6.58;70.08;101925.53;4197453;28;20457;-77
2022/12/27 10:44:13;;;;;;;10.60;2.70;;;;;;;6.55;70.36;101930.53;4190789;28;20115;-76
2022/12/27 10:46:19;;;;;;;11.77;2.97;;;;;;;6.59;70.49;101923.84;4198566;28;20037;-77
2022/12/27 10:48:24;;;;;;;9.45;2.80;;;;;;;6.58;70.20;101925.53;4198552;28;20064;-77
2022/12/27 10:50:33;;;;;;;7.90;2.67;;;;;;;6.59;70.36;101924.75;4198540;28;20071;-77
2022/12/27 10:52:37;;;;;;;9.65;3.15;;;;;;;6.56;70.10;101937.50;4194175;28;20384;-76
2022/12/27 10:54:51;;;;;;;7.93;2.70;;;;;;;6.57;69.84;101928.03;4198013;28;20045;-76
2022/12/27 10:56:56;;;;;;;4.47;1.80;;;;;;;6.58;69.99;101932.41;4198422;28;20082;-76
2022/12/27 10:59:11;;;;;;;6.95;2.08;;;;;;;6.69;69.85;101932.97;4197261;28;20033;-76
2022/12/27 11:01:21;;;;;;;11.82;2.83;;;;;;;6.67;69.65;101932.91;4197964;28;20090;-77
2022/12/27 11:03:27;;;;;;;8.05;3.03;;;;;;;6.80;69.41;101926.69;4197999;28;20402;-78
2022/12/27 11:05:31;;;;;;;11.27;2.40;;;;;;;6.90;68.97;101928.94;4197559;28;20522;-77
2022/12/27 11:07:34;;;;;;;8.25;2.63;;;;;;;6.93;68.73;101923.94;4197240;28;20456;-77
2022/12/27 11:09:40;;;;;;;9.63;2.25;;;;;;;6.97;69.24;101920.72;4196811;28;20032;-77
2022/12/27 11:11:51;;;;;;;7.60;2.10;;;;;;;6.88;68.46;101925.41;4197965;28;20045;-76
2022/12/27 11:14:10;;;;;;;7.32;2.42;;;;;;;6.88;68.67;101927.09;4196596;28;20036;-78
2022/12/27 11:16:18;;;;;;;10.48;2.63;;;;;;;6.93;68.65;101918.78;4191947;28;20388;-78
2022/12/27 11:18:22;;;;;;;5.47;2.03;;;;;;;6.96;68.35;101921.50;4196746;28;20405;-78
2022/12/27 11:20:28;;;;;;;12.45;2.40;;;;;;;7.01;68.70;101921.78;4197967;28;20045;-77
2022/12/27 11:22:32;;;;;;;8.68;2.30;;;;;;;7.09;68.71;101925.63;4198007;28;20402;-78
2022/12/27 11:24:36;;;;;;;7.32;1.88;;;;;;;7.02;67.50;101927.81;4196564;28;20036;-77
2022/12/27 11:26:49;;;;;;;6.32;1.85;;;;;;;6.96;68.06;101924.09;4197976;28;20086;-77
2022/12/27 11:28:59;;;;;;;7.03;1.70;;;;;;;6.97;67.81;101930.19;4198007;28;20119;-78
2022/12/27 11:31:04;;;;;;;7.93;2.13;;;;;;;6.92;67.58;101917.00;4191068;28;20063;-78
2022/12/27 11:33:17;;;;;;;;;;;;;;;6.83;67.56;101926.84;4196689;28;20545;-78
2022/12/27 11:35:26;;;;;;;9.18;2.38;;;;;;;6.85;67.86;101914.91;4197708;28;19985;-77
2022/12/27 11:37:30;;;;;;;6.63;2.05;;;;;;;6.98;67.29;101927.66;4197802;28;20040;-78
2022/12/27 11:39:38;;;;;;;8.20;2.45;;;;;;;6.97;67.10;101923.31;4196413;28;20127;-77